createdAt,value
2019-04-23T00:04:16.637Z,12.40
2019-04-23T00:09:27.689Z,15.47
2019-04-23T00:14:45.991Z,12.37
2019-04-23T00:19:51.464Z,11.23
2019-04-23T00:30:04.376Z,12.50
2019-04-23T00:35:13.647Z,11.97
2019-04-23T00:40:25.823Z,12.53
2019-04-23T00:45:39.839Z,11.37
2019-04-23T00:50:54.250Z,13.47
2019-04-23T00:55:55.664Z,11.90
2019-04-23T01:01:00.382Z,13.07
2019-04-23T01:06:12.957Z,10.37
2019-04-23T01:11:20.772Z,17.20
2019-04-23T01:16:28.605Z,14.20
2019-04-23T01:21:26.439Z,11.47
2019-04-23T01:27:33.662Z,15.77
2019-04-23T01:32:27.045Z,13.33
2019-04-23T01:37:36.741Z,13.33
2019-04-23T01:47:54.858Z,12.20
2019-04-23T01:53:13.780Z,13.07
2019-04-23T01:58:25.848Z,13.43
2019-04-23T02:03:28.014Z,13.10
2019-04-23T02:08:32.157Z,12.17
2019-04-23T02:13:49.054Z,14.37
2019-04-23T02:18:59.554Z,11.87
2019-04-23T02:24:11.967Z,12.10
2019-04-23T02:29:28.718Z,13.87
2019-04-23T02:39:49.812Z,11.87
2019-04-23T02:44:45.422Z,13.20
2019-04-23T02:50:14.055Z,12.40
2019-04-23T02:55:10.790Z,11.57
2019-04-23T03:05:32.941Z,12.47
2019-04-23T03:16:06.328Z,10.73
2019-04-23T03:21:54.349Z,12.57
2019-04-23T03:42:17.821Z,14.63
2019-04-23T03:52:44.623Z,12.87
2019-04-23T03:57:43.386Z,12.57
2019-04-23T04:03:10.281Z,14.70
2019-04-23T04:08:13.251Z,13.50
2019-04-23T04:13:15.854Z,12.97
2019-04-23T04:18:38.838Z,19.30
2019-04-23T04:29:01.722Z,21.50
2019-04-23T04:34:11.654Z,20.70
2019-04-23T04:39:22.580Z,14.97
2019-04-23T04:44:27.192Z,15.63
2019-04-23T04:49:21.471Z,17.10
2019-04-23T04:54:22.653Z,16.27
2019-04-23T04:59:45.679Z,14.00
2019-04-23T05:05:02.266Z,17.37
2019-04-23T05:10:21.701Z,14.07
2019-04-23T05:20:14.657Z,16.00
2019-04-23T05:25:17.644Z,13.80
2019-04-23T05:30:34.712Z,17.60
2019-04-23T05:36:04.782Z,25.37
2019-04-23T05:45:55.882Z,14.23
2019-04-23T05:51:10.949Z,11.87
2019-04-23T05:56:13.244Z,16.17
2019-04-23T06:11:56.990Z,14.00
2019-04-23T06:17:01.979Z,13.07
2019-04-23T06:27:21.218Z,11.63
2019-04-23T06:32:22.903Z,14.03
2019-04-23T06:37:49.541Z,11.77
2019-04-23T06:42:59.132Z,15.23
2019-04-23T06:48:15.442Z,12.20
2019-04-23T06:53:12.621Z,13.83
2019-04-23T07:09:05.368Z,10.37
2019-04-23T07:13:55.826Z,10.33
2019-04-23T07:19:04.997Z,11.37
2019-04-23T07:24:08.646Z,9.67
2019-04-23T07:34:32.024Z,12.47
2019-04-23T07:39:57.117Z,10.73
2019-04-23T07:45:10.403Z,9.77
2019-04-23T07:55:36.287Z,14.03
2019-04-23T08:05:42.537Z,11.43
2019-04-23T08:16:32.982Z,17.30
2019-04-23T08:21:32.062Z,13.53
2019-04-23T08:42:32.593Z,17.93
2019-04-23T08:52:39.582Z,12.47
2019-04-23T08:57:45.219Z,13.33
2019-04-23T09:03:05.676Z,13.43
2019-04-23T09:08:15.012Z,12.47
2019-04-23T09:18:26.211Z,15.13
2019-04-23T09:23:45.110Z,18.93
2019-04-23T09:34:11.421Z,11.23
2019-04-23T09:39:34.693Z,14.57
2019-04-23T09:45:03.830Z,13.10
2019-04-23T09:50:15.349Z,10.53
2019-04-23T10:00:37.942Z,13.93
2019-04-23T10:05:25.107Z,18.90
2019-04-23T10:10:22.727Z,13.40
2019-04-23T10:15:34.947Z,13.40
2019-04-23T10:20:40.340Z,11.50
2019-04-23T10:25:48.075Z,14.77
2019-04-23T10:30:56.560Z,16.80
2019-04-23T10:36:09.391Z,14.40
2019-04-23T10:41:14.159Z,15.13
2019-04-23T10:47:11.528Z,13.37
2019-04-23T10:52:26.463Z,13.47
2019-04-23T10:57:25.296Z,11.93
2019-04-23T11:02:40.244Z,14.27
2019-04-23T11:07:33.979Z,16.17
2019-04-23T11:13:10.702Z,16.47
2019-04-23T11:18:02.996Z,15.40
2019-04-23T11:23:22.413Z,15.37
2019-04-23T11:28:33.238Z,15.07
2019-04-23T11:33:47.342Z,11.53
2019-04-23T11:38:56.225Z,16.50
2019-04-23T11:44:52.953Z,12.63
2019-04-23T11:49:26.629Z,12.73
2019-04-23T11:54:17.496Z,16.77
2019-04-23T11:59:36.410Z,18.83
2019-04-23T12:05:13.247Z,14.07
2019-04-23T12:10:22.981Z,13.97
2019-04-23T12:25:45.762Z,15.10
2019-04-23T12:31:00.801Z,17.07
2019-04-23T12:36:28.623Z,16.67
2019-04-23T12:41:31.941Z,18.77
2019-04-23T12:51:56.083Z,15.43
2019-04-23T12:57:04.806Z,20.33
2019-04-23T13:07:29.148Z,15.70
2019-04-23T13:12:38.135Z,20.03
2019-04-23T13:22:49.305Z,16.77
2019-04-23T13:28:02.804Z,17.73
2019-04-23T13:33:08.405Z,20.87
2019-04-23T13:38:21.521Z,19.67
2019-04-23T13:43:29.648Z,21.43
2019-04-23T13:48:24.933Z,22.63
2019-04-23T13:58:51.364Z,19.93
2019-04-23T14:04:24.064Z,21.33
2019-04-23T14:09:11.710Z,25.23
2019-04-23T14:14:38.168Z,23.27
2019-04-23T14:19:31.949Z,22.07
2019-04-23T14:24:54.610Z,24.73
2019-04-23T14:29:55.953Z,20.87
2019-04-23T14:40:20.053Z,23.80
2019-04-23T14:45:57.830Z,20.87
2019-04-23T14:55:58.120Z,18.37
2019-04-23T15:01:16.049Z,22.60
2019-04-23T15:06:26.276Z,22.47
2019-04-23T15:11:38.817Z,18.07
2019-04-23T15:16:31.773Z,18.37
2019-04-23T15:37:21.876Z,23.20
2019-04-23T15:42:23.095Z,28.17
2019-04-23T15:47:28.227Z,19.87
2019-04-23T15:58:05.442Z,29.30
2019-04-23T16:02:24.562Z,20.17
2019-04-23T16:07:51.902Z,23.77
2019-04-23T16:13:13.326Z,24.53
2019-04-23T16:18:35.195Z,20.00
2019-04-23T16:23:42.217Z,16.25
2019-04-23T16:29:08.321Z,17.67
2019-04-23T16:39:16.913Z,18.00
2019-04-23T16:44:40.433Z,28.83
2019-04-23T16:49:42.183Z,17.10
2019-04-23T17:00:17.140Z,13.57
2019-04-23T17:05:16.202Z,14.03
2019-04-23T17:15:28.116Z,13.40
2019-04-23T17:20:41.308Z,19.37
2019-04-23T17:25:41.736Z,14.03
2019-04-23T17:31:15.431Z,16.00
2019-04-23T17:36:34.897Z,12.60
2019-04-23T17:42:05.220Z,10.93
2019-04-23T17:47:13.415Z,12.37
2019-04-23T17:52:26.263Z,13.20
2019-04-23T17:57:28.387Z,13.57
2019-04-23T18:02:59.901Z,10.87
2019-04-23T18:12:57.595Z,10.63
2019-04-23T18:18:10.098Z,10.70
2019-04-23T18:28:30.169Z,12.03
2019-04-23T18:38:59.279Z,9.90
2019-04-23T18:44:21.490Z,7.77
2019-04-23T18:49:28.204Z,11.17
2019-04-23T18:54:37.030Z,7.20
2019-04-23T18:59:57.124Z,9.53
2019-04-23T19:10:33.699Z,8.10
2019-04-23T19:21:08.045Z,6.13
2019-04-23T19:25:57.763Z,7.27
2019-04-23T19:31:33.941Z,8.07
2019-04-23T19:36:49.296Z,6.73
2019-04-23T19:41:57.586Z,9.70
2019-04-23T19:57:12.638Z,5.77
2019-04-23T20:02:33.847Z,6.10
2019-04-23T20:07:43.785Z,7.17
2019-04-23T20:12:40.413Z,6.97
2019-04-23T20:17:53.107Z,7.97
2019-04-23T20:23:04.537Z,8.27
2019-04-23T20:28:24.601Z,13.63
2019-04-23T20:34:19.656Z,9.43
2019-04-23T20:39:02.647Z,10.20
2019-04-23T20:44:02.093Z,9.93
2019-04-23T20:49:07.318Z,10.63
2019-04-23T20:54:18.582Z,10.80
2019-04-23T20:59:35.893Z,12.53
2019-04-23T21:04:42.601Z,12.77
2019-04-23T21:10:00.951Z,13.63
2019-04-23T21:15:05.690Z,13.33
2019-04-23T21:20:19.572Z,13.57
2019-04-23T21:25:14.730Z,14.03
2019-04-23T21:36:18.371Z,14.20
2019-04-23T21:41:46.671Z,13.80
2019-04-23T21:46:53.573Z,14.00
2019-04-23T21:56:54.058Z,14.23
2019-04-23T22:07:18.939Z,14.00
2019-04-23T22:12:23.237Z,17.27
2019-04-23T22:17:41.257Z,15.70
2019-04-23T22:22:59.480Z,14.93
2019-04-23T22:27:54.535Z,16.37
2019-04-23T22:38:17.012Z,21.70
2019-04-23T22:43:20.591Z,21.33
2019-04-23T22:48:46.135Z,21.30
2019-04-23T22:53:52.253Z,22.27
2019-04-23T22:59:11.951Z,23.27
2019-04-23T23:04:24.329Z,25.23
2019-04-23T23:09:26.979Z,24.07
2019-04-23T23:14:35.302Z,25.27
2019-04-23T23:19:51.908Z,25.17
2019-04-23T23:24:59.612Z,25.77
2019-04-23T23:30:02.785Z,25.83
2019-04-23T23:40:22.156Z,26.07
2019-04-23T23:45:25.340Z,23.20
2019-04-23T23:55:52.055Z,22.80
